Saturday, May 30, 2015, 10:21 AM EDT
Back to Local

KMPO, Mt Pocono Pocono Mountains

Location: Pocono Summit, PA, United States Lat: 41.133
Local Time: 10:21 AM EDT (14:21 GMT) Lon: -75.383
Time Zone: US/Eastern Elev: 1915 ft

Show me the last for .
Show Coded

Time T Td Feel RH Dir Speed Gust Alt SLP Vis Weather Sky Remarks
2015-05-30 09:53 70 63 - 78 210° 9 - 30.22 30.19 9 OVC010 None
2015-05-30 08:53 68 63 - 83 220° 12 - 30.22 30.19 6 HZ OVC008 None
2015-05-30 08:37 67 63 - 87 230° 8 - 30.22 - 6 BR OVC006 None
2015-05-30 07:53 67 63 - 87 210° 8 18 30.23 30.19 7 OVC008 6-hr Min Temp (8am): 64.9°F
6-hr Max Temp (8am): 66.9°F
2015-05-30 07:23 67 62 - 84 220° 7 - 30.23 - 8 BKN009 BKN015 BKN027 None
2015-05-30 06:53 66 62 - 87 210° 7 - 30.22 30.18 6 BR BKN007 BKN018 OVC027 None
2015-05-30 05:53 66 62 - 87 240° 7 - 30.21 30.17 6 BR OVC007 None
2015-05-30 05:37 66 62 - 87 220° 7 - 30.21 - 6 BR OVC007 None
2015-05-30 04:53 66 63 - 89 230° 9 - 30.21 30.18 6 BR OVC005 None
2015-05-30 04:22 66 63 - 89 220° 10 - 30.21 - 6 BR OVC006 None
2015-05-30 04:05 66 62 - 87 230° 9 - 30.21 - 7 OVC007 None
2015-05-30 03:53 66 62 - 87 230° 10 - 30.21 30.17 6 BR OVC006 None
2015-05-30 02:53 66 63 - 89 220° 9 - 30.21 30.17 5 BR OVC006 None
2015-05-30 02:19 66 62 - 87 210° 7 - 30.22 - 6 BR OVC006 None
2015-05-30 01:18 65 60 - 84 180° 8 - 30.23 - 10 BKN007 BKN012 None
2015-05-30 00:59 64 59 - 83 160° 6 - 30.23 - 10 FEW008 BKN013 None
2015-05-30 00:53 64 59 - 83 160° 5 - 30.23 30.20 10 SCT013 24-hr Min Temp (1am): 55.0°F
24-hr Max Temp (1am): 79.0°F
2015-05-30 00:11 65 58 - 78 150° 5 - 30.24 - 10 SCT015 None
2015-05-30 00:00 66 59 - 78 150° 7 - 30.24 - 10 BKN015 None
2015-05-29 23:53 65 58 - 78 150° 7 - 30.24 30.21 10 SCT015 None
2015-05-29 22:53 67 58 - 72 150° 9 - 30.25 30.22 10 CLR None
2015-05-29 20:53 69 56 - 62 170° 5 - 30.23 30.21 10 CLR None
2015-05-29 19:53 74 56 77 53 190° 6 - 30.24 30.21 10 CLR 6-hr Min Temp (8pm): 73.9°F
6-hr Max Temp (8pm): 79.0°F
2015-05-29 18:53 77 54 78 44 180° 8 - 30.23 30.20 10 CLR None
2015-05-29 17:53 78 51 - 38 250° 6 - 30.28 30.26 10 CLR None
2015-05-29 16:53 78 50 - 37 170° 8 - 30.30 30.27 10 CLR None
2015-05-29 15:53 78 51 - 38 220° 8 - 30.34 30.31 10 CLR None
2015-05-29 14:53 78 51 - 38 230° 8 - 30.34 30.31 10 CLR None
2015-05-29 13:53 76 51 77 41 - Calm - 30.31 30.29 10 CLR 6-hr Min Temp (2pm): 63.0°F
6-hr Max Temp (2pm): 75.9°F
2015-05-29 11:53 71 53 76 53 Variable 5 - 30.33 30.31 10 CLR None
2015-05-29 10:53 68 52 - 56 140° 8 - 30.33 30.32 10 CLR None

Support USWX by starting your Amazon purchase here.